Reese River Valley, Nevada Weather observations

Data are for 10 minute period ending at time listed.
 Day   Time   Solar   Ave.   Ave.  Ave.  Vector  Max.   Baro.   Total    
  of    of     Rad.   Air    Rel.  Wind   Wind   Wind  Press.  Precip.   
Year   Day            Temp.  Hum.  Speed  Dir.   Gust                    
2017   (PST)  Kw/m2    F      %     mph   deg.    mph    mb.     in.     
-------------------------------------------------------------------------
 119    4:30   0.00   15.6    91    5.1   203     6.2   818.8    0.00 
 119    4:40   0.00   15.8    91    4.8   199     6.1   818.9    0.00 
 119    4:50   0.00   16.1    90    5.1   210     6.1   818.9    0.00 
 119    5:00   0.01   16.0    90    6.0   212     7.5   819.0    0.00 
 119    5:10   0.01   16.6    91    5.6   197     6.9   819.0    0.00 
 119    5:20   0.01   16.7    90    3.5   174     4.5   819.1    0.00 
 119    5:30   0.02   16.4    90    4.9   216     5.8   819.2    0.00 
 119    5:40   0.09   17.9    91    4.2   204     5.3   819.3    0.00 
 119    5:50   0.14   20.8    88    4.7   212     6.3   819.5    0.00 
 119    6:00   0.17   23.2    86    4.6   213     5.8   819.6    0.00 
 119    6:10   0.20   25.9    83    4.6   223     6.9   819.6    0.00 
 119    6:20   0.24   27.2    80    6.2   233     7.8   819.8    0.00 
 119    6:30   0.28   28.3    77    6.7   232     8.2   819.8    0.00 
 119    6:40   0.31   30.3    74    5.9   229     7.5   819.8    0.00 
 119    6:50   0.35   32.2    67    4.5   218     6.4   819.9    0.00 
 119    7:00   0.39   34.4    61    2.7   214     4.4   819.8    0.00 
 119    7:10   0.43   37.2    55    1.0   172     3.1   819.9    0.00 
 119    7:20   0.47   38.4    52    1.8    86     3.4   820.0    0.00 
 119    7:30   0.50   37.6    53    2.3    23     5.0   820.0    0.00 
 119    7:40   0.54   37.8    54    4.5    54     8.4   820.0    0.00 
 119    7:50   0.58   37.7    54    4.2    18     7.4   820.1    0.00 
 119    8:00   0.61   38.6    53    4.8    48    11.1   820.0    0.00 
 119    8:10   0.65   38.7    50    4.7    19     8.5   819.9    0.00 
 119    8:20   0.68   39.6    48    5.0    55    10.1   819.9    0.00 
 119    8:30   0.71   40.3    47    3.8    46     9.2   819.9    0.00 
 119    8:40   0.75   40.6    46    3.1    29     8.4   819.9    0.00 
 119    8:50   0.78   41.1    44    4.1    66     7.7   819.9    0.00 
 119    9:00   0.81   41.1    44    5.7     1    11.8   819.8    0.00 
 119    9:10   0.84   41.6    44    5.0    24    10.2   819.9    0.00 
 119    9:20   0.86   41.9    42    5.6     3    10.2   819.9    0.00 
 119    9:30   0.89   42.3    40    6.7     0    14.3   819.8    0.00 
 119    9:40   0.91   43.0    39    6.7     0    12.4   819.8    0.00 
 119    9:50   0.93   43.7    36    6.5    11    13.7   819.8    0.00 
 119   10:00   0.95   44.1    38    7.6     4    12.3   819.8    0.00 
 119   10:10   0.97   44.5    35    6.7   342    12.6   819.9    0.00 
 119   10:20   0.99   45.0    32    7.3   326    12.4   820.0    0.00 
 119   10:30   1.01   45.2    32    6.2    17    11.5   820.0    0.00 
 119   10:40   1.02   46.0    32    6.9     8    12.2   820.1    0.00 
 119   10:50   1.04   47.0    31    5.4   359    10.7   820.1    0.00 
 119   11:00   1.05   46.9    31    6.2    12    12.3   820.0    0.00 
 119   11:10   1.06   47.9    25    5.9   312    12.9   819.9    0.00 
 119   11:20   1.06   48.5    28    5.4    12    11.0   820.0    0.00 
 119   11:30   1.07   48.7    27    5.9   335    14.2   819.9    0.00 
 119   11:40   1.07   49.0    26    6.9   349    16.8   819.9    0.00 
 119   11:50   1.07   49.3    24    5.2   336    11.4   819.8    0.00 
 119   12:00   1.07   49.2    22    6.5   331    12.3   819.7    0.00 
 119   12:10   1.07   49.4    23    5.5     8    12.9   819.7    0.00 
 119   12:20   1.06   50.1    23    5.9     6    12.6   819.7    0.00 
 119   12:30   1.06   50.6    22    7.6     6    14.7   819.6    0.00 
 119   12:40   1.05   50.7    21    5.1     4    10.7   819.5    0.00 
 119   12:50   1.04   50.9    22    4.9    79    11.8   819.5    0.00 
 119   13:00   1.03   52.1    22    6.1     3    10.4   819.5    0.00 
 119   13:10   1.02   51.6    20    7.4   338    14.7   819.4    0.00 
 119   13:20   1.00   51.8    19    6.5   338    12.3   819.3    0.00 
 119   13:30   0.98   52.3    18    5.3    15    10.7   819.2    0.00 
 119   13:40   0.97   52.7    19    5.9    40    10.8   819.2    0.00 
 119   13:50   0.94   53.0    21    7.0    10    14.7   819.3    0.00 
 119   14:00   0.93   53.3    17    5.6   336    14.3   819.2    0.00 
 119   14:10   0.90   54.0    18    6.0    16    12.9   819.2    0.00 
 119   14:20   0.88   53.8    17    4.1     9     9.4   819.1    0.00 
 119   14:30   0.85   54.4    19    6.0    12    14.0   819.1    0.00 
 119   14:40   0.82   54.0    20    6.0     1    11.3   819.1    0.00 
 119   14:50   0.79   54.3    20    7.2   359    12.3   818.9    0.00 
 119   15:00   0.76   54.3    16    5.1   330    10.1   818.9    0.00 
 119   15:10   0.73   54.7    22    6.1    23    13.3   818.9    0.00 
 119   15:20   0.70   54.8    22    7.6    19    13.6   818.8    0.00 
 119   15:30   0.66   55.0    18    2.9    58     8.9   818.6    0.00 
 119   15:40   0.63   55.4    19    6.3    59    13.8   818.6    0.00 
 119   15:50   0.60   54.9    18    6.6   346    11.4   818.6    0.00 
 119   16:00   0.49   54.6    19    3.5    12     7.7   818.4    0.00 
 119   16:10   0.49   55.4    19    3.2    65     8.5   818.3    0.00 
 119   16:20   0.44   54.9    20    5.0    50     9.3   818.2    0.00 
 119   16:30   0.44   54.7    23    5.8    54     9.6   818.3    0.00 
 119   16:40   0.41   54.8    22    5.4    23    12.1   818.2    0.00 
 119   16:50   0.37   55.0    21    5.3    23    10.7   818.1    0.00 
 119   17:00   0.33   54.8    24    4.2    68     7.7   818.1    0.00 
 119   17:10   0.29   54.4    26    4.0    65     7.6   818.1    0.00 
 119   17:20   0.26   54.0    26    5.0    37     8.9   818.1    0.00 
 119   17:30   0.22   54.1    21    5.4   353     9.1   818.1    0.00 
 119   17:40   0.18   54.3    23    2.9    12     6.1   818.0    0.00 
 119   17:50   0.15   53.7    25    5.4    16     8.6   818.0    0.00 
 119   18:00   0.12   53.4    22    4.8   345     7.4   818.0    0.00 
 119   18:10   0.08   52.2    24    5.4   358     7.9   818.0    0.00 
 119   18:20   0.03   51.2    25    4.2     0     8.0   818.0    0.00 
 119   18:30   0.01   48.8    28    4.7    20     6.4   818.0    0.00 
 119   18:40   0.01   47.1    29    2.3   350     4.6   818.0    0.00 
 119   18:50   0.00   44.9    29    2.2   306     3.4   818.0    0.00 
 119   19:00   0.00   43.5    32    0.8   274     1.8   818.1    0.00 
 119   19:10   0.00   43.0    33    1.4   359     4.4   818.3    0.00 
 119   19:20   0.00   41.9    37    4.2     5     6.8   818.6    0.00 
 119   19:30   0.00   41.3    37    4.1    21     7.5   818.7    0.00 
 119   19:40   0.00   41.5    37    3.9    50     5.6   818.8    0.00 
 119   19:50   0.00   42.4    32    5.1   347     6.3   818.9    0.00 
 119   20:00   0.00   42.5    31    5.7   340     6.9   819.0    0.00 
 119   20:10   0.00   42.2    30    5.1   330     6.0   819.1    0.00 
 119   20:20   0.00   41.2    32    4.7   334     5.8   819.2    0.00 
 119   20:30   0.00   40.5    32    5.1   319     5.9   819.4    0.00 
 119   20:40   0.00   38.4    35    4.1   308     5.1   819.5    0.00 
 119   20:50   0.00   37.2    40    2.5   221     3.8   819.5    0.00 
 119   21:00   0.00   38.1    39    2.2   203     5.5   819.6    0.00 
 119   21:10   0.00   34.7    49    4.5   160     7.8   819.7    0.00 
 119   21:20   0.00   33.9    53    4.6   146     6.6   819.7    0.00 
 119   21:30   0.00   33.2    54    4.5   163     6.3   819.7    0.00 
 119   21:40   0.00   31.0    59    6.1   164     7.2   819.7    0.00 
 119   21:50   0.00   30.6    61    5.6   161     6.5   819.7    0.00 
 119   22:00   0.00   29.8    63    5.0   204     6.1   819.6    0.00 
 119   22:10   0.00   29.3    63    5.3   220     6.2   819.7    0.00 
 119   22:20   0.00   28.8    64    5.4   214     6.2   819.7    0.00 
 119   22:30   0.00   28.3    65    5.5   222     6.1   819.8    0.00 
 119   22:40   0.00   28.8    66    6.6   219     7.7   819.8    0.00 
 119   22:50   0.00   30.3    65    6.3   201     7.7   819.7    0.00 
 119   23:00   0.00   31.5    63    7.3   193     8.4   819.7    0.00 
 119   23:10   0.00   31.8    62    7.3   209     9.0   819.7    0.00 
 119   23:20   0.00   32.4    60    8.2   202    10.4   819.7    0.00 
 119   23:30   0.00   31.3    60    7.2   219     9.3   819.7    0.00 
 119   23:40   0.00   28.4    66    6.8   220     8.0   819.7    0.00 
 119   23:50   0.00   27.8    68    5.9   220     7.2   819.6    0.00 
 120    0:00   0.00   27.4    68    5.6   214     6.6   819.6    0.00 
 120    0:10   0.00   27.7    68    5.0   202     6.0   819.6    0.00 
 120    0:20   0.00   27.8    70    5.2   191     6.1   819.5    0.00 
 120    0:30   0.00   27.5    69    5.0   193     5.8   819.5    0.00 
 120    0:40   0.00   26.7    69    5.3   212     6.1   819.4    0.00 
 120    0:50   0.00   26.3    70    5.4   208     6.1   819.4    0.00 
 120    1:00   0.00   25.8    71    5.8   214     6.9   819.3    0.00 
 120    1:10   0.00   25.5    72    6.2   215     7.2   819.2    0.00 
 120    1:20   0.00   26.9    70    6.7   222     8.5   819.0    0.00 
 120    1:30   0.00   27.5    67    7.3   233     8.7   819.0    0.00 
 120    1:40   0.00   27.7    67    8.1   227    10.5   818.9    0.00 
 120    1:50   0.00   28.2    65    7.7   227    10.2   818.9    0.00 
 120    2:00   0.00   27.8    66    7.0   223     8.2   818.9    0.00 
 120    2:10   0.00   27.4    67    7.4   230     9.3   819.0    0.00 
 120    2:20   0.00   27.1    68    7.5   234     9.1   819.0    0.00 
 120    2:30   0.00   26.4    69    8.1   236    10.2   819.1    0.00 
 120    2:40   0.00   26.5    69    8.5   232    10.8   819.2    0.00 
 120    2:50   0.00   26.4    69    8.0   230    10.4   819.1    0.00 
 120    3:00   0.00   26.5    69    8.3   228    10.5   819.1    0.00 
 120    3:10   0.00   26.6    68    7.1   226     8.6   819.1    0.00 
 120    3:20   0.00   26.8    67    7.2   223     8.6   819.2    0.00 
 120    3:30   0.00   27.0    66    7.9   222     9.3   819.2    0.00 
 120    3:40   0.00   26.8    67    8.9   229    11.0   819.3    0.00 
 120    3:50   0.00   26.8    66    8.5   221    10.7   819.4    0.00 
 120    4:00   0.00   26.7    66    7.6   214     9.8   819.4    0.00 
 120    4:10   0.00   26.0    68    4.2   200     6.9   819.4    0.00 
 120    4:20   0.00   25.8    69    5.2   212     7.2   819.5    0.00 

Return to Reese River Valley graphs page.


Western Regional Climate Center,wrcc@dri.edu